sensor_id;sensor_type;location;lat;lon;timestamp;temperature;humidity
26164;DHT22;13914;48.178;11.716;2022-07-12T00:02:13;17.70;57.80
26164;DHT22;13914;48.178;11.716;2022-07-12T00:04:39;17.70;57.80
26164;DHT22;13914;48.178;11.716;2022-07-12T00:07:05;17.70;57.70
26164;DHT22;13914;48.178;11.716;2022-07-12T00:09:31;17.70;57.80
26164;DHT22;13914;48.178;11.716;2022-07-12T00:11:56;17.60;57.70
26164;DHT22;13914;48.178;11.716;2022-07-12T00:14:25;17.60;58.10
26164;DHT22;13914;48.178;11.716;2022-07-12T00:16:51;17.60;58.00
26164;DHT22;13914;48.178;11.716;2022-07-12T00:19:18;17.60;58.20
26164;DHT22;13914;48.178;11.716;2022-07-12T00:21:44;17.60;58.20
26164;DHT22;13914;48.178;11.716;2022-07-12T00:24:09;17.50;57.80
26164;DHT22;13914;48.178;11.716;2022-07-12T00:26:35;17.50;57.80
26164;DHT22;13914;48.178;11.716;2022-07-12T00:29:01;17.50;57.80
26164;DHT22;13914;48.178;11.716;2022-07-12T00:31:27;17.50;57.80
26164;DHT22;13914;48.178;11.716;2022-07-12T00:33:53;17.40;57.80
26164;DHT22;13914;48.178;11.716;2022-07-12T00:36:19;17.40;57.80
26164;DHT22;13914;48.178;11.716;2022-07-12T00:38:45;17.40;57.80
26164;DHT22;13914;48.178;11.716;2022-07-12T00:41:11;17.40;57.90
26164;DHT22;13914;48.178;11.716;2022-07-12T00:43:37;17.30;58.30
26164;DHT22;13914;48.178;11.716;2022-07-12T00:46:03;17.40;58.00
26164;DHT22;13914;48.178;11.716;2022-07-12T00:48:32;17.30;58.00
26164;DHT22;13914;48.178;11.716;2022-07-12T00:50:58;17.30;58.10
26164;DHT22;13914;48.178;11.716;2022-07-12T00:53:24;17.20;58.10
26164;DHT22;13914;48.178;11.716;2022-07-12T00:55:57;17.20;58.00
26164;DHT22;13914;48.178;11.716;2022-07-12T00:58:24;17.20;58.30
26164;DHT22;13914;48.178;11.716;2022-07-12T01:00:51;17.20;58.20
26164;DHT22;13914;48.178;11.716;2022-07-12T01:03:18;17.10;58.30
26164;DHT22;13914;48.178;11.716;2022-07-12T01:05:45;17.10;58.20
26164;DHT22;13914;48.178;11.716;2022-07-12T01:08:12;17.10;59.10
26164;DHT22;13914;48.178;11.716;2022-07-12T01:10:39;17.10;58.40
26164;DHT22;13914;48.178;11.716;2022-07-12T01:13:05;17.00;58.40
26164;DHT22;13914;48.178;11.716;2022-07-12T01:15:31;17.00;58.40
26164;DHT22;13914;48.178;11.716;2022-07-12T01:17:57;16.90;58.60
26164;DHT22;13914;48.178;11.716;2022-07-12T01:20:23;16.90;58.60
26164;DHT22;13914;48.178;11.716;2022-07-12T01:22:55;16.90;58.70
26164;DHT22;13914;48.178;11.716;2022-07-12T01:25:24;16.90;58.70
26164;DHT22;13914;48.178;11.716;2022-07-12T01:27:49;16.80;58.70
26164;DHT22;13914;48.178;11.716;2022-07-12T01:30:16;16.80;58.90
26164;DHT22;13914;48.178;11.716;2022-07-12T01:32:41;16.80;59.00
26164;DHT22;13914;48.178;11.716;2022-07-12T01:35:08;16.80;58.70
26164;DHT22;13914;48.178;11.716;2022-07-12T01:37:35;16.70;58.90
26164;DHT22;13914;48.178;11.716;2022-07-12T01:40:03;16.70;58.90
26164;DHT22;13914;48.178;11.716;2022-07-12T01:42:33;16.70;58.90
26164;DHT22;13914;48.178;11.716;2022-07-12T01:44:59;16.60;59.00
26164;DHT22;13914;48.178;11.716;2022-07-12T01:47:27;16.60;59.10
26164;DHT22;13914;48.178;11.716;2022-07-12T01:49:53;16.60;59.20
26164;DHT22;13914;48.178;11.716;2022-07-12T01:52:19;16.50;59.20
26164;DHT22;13914;48.178;11.716;2022-07-12T01:54:46;16.50;59.40
26164;DHT22;13914;48.178;11.716;2022-07-12T01:57:12;16.50;59.20
26164;DHT22;13914;48.178;11.716;2022-07-12T01:59:38;16.40;59.40
26164;DHT22;13914;48.178;11.716;2022-07-12T02:02:04;16.40;59.30
26164;DHT22;13914;48.178;11.716;2022-07-12T02:04:30;16.40;59.40
26164;DHT22;13914;48.178;11.716;2022-07-12T02:06:55;16.40;59.60
26164;DHT22;13914;48.178;11.716;2022-07-12T02:09:21;16.30;59.50
26164;DHT22;13914;48.178;11.716;2022-07-12T02:11:48;16.30;59.60
26164;DHT22;13914;48.178;11.716;2022-07-12T02:14:13;16.30;59.60
26164;DHT22;13914;48.178;11.716;2022-07-12T02:16:40;16.20;60.30
26164;DHT22;13914;48.178;11.716;2022-07-12T02:19:06;16.20;60.00
26164;DHT22;13914;48.178;11.716;2022-07-12T02:21:32;16.20;59.90
26164;DHT22;13914;48.178;11.716;2022-07-12T02:23:58;16.20;59.80
26164;DHT22;13914;48.178;11.716;2022-07-12T02:26:25;16.20;59.90
26164;DHT22;13914;48.178;11.716;2022-07-12T02:28:50;16.10;59.90
26164;DHT22;13914;48.178;11.716;2022-07-12T02:31:16;16.10;59.90
26164;DHT22;13914;48.178;11.716;2022-07-12T02:33:42;16.10;59.90
26164;DHT22;13914;48.178;11.716;2022-07-12T02:36:08;16.00;60.00
26164;DHT22;13914;48.178;11.716;2022-07-12T02:38:34;16.00;60.00
26164;DHT22;13914;48.178;11.716;2022-07-12T02:40:59;16.00;60.00
26164;DHT22;13914;48.178;11.716;2022-07-12T02:43:26;15.90;60.00
26164;DHT22;13914;48.178;11.716;2022-07-12T02:45:53;16.00;60.10
26164;DHT22;13914;48.178;11.716;2022-07-12T02:48:23;15.90;60.10
26164;DHT22;13914;48.178;11.716;2022-07-12T02:50:49;15.90;60.00
26164;DHT22;13914;48.178;11.716;2022-07-12T02:53:14;15.80;60.20
26164;DHT22;13914;48.178;11.716;2022-07-12T02:55:40;15.80;60.30
26164;DHT22;13914;48.178;11.716;2022-07-12T02:58:06;15.80;60.30
26164;DHT22;13914;48.178;11.716;2022-07-12T03:00:32;15.70;60.30
26164;DHT22;13914;48.178;11.716;2022-07-12T03:02:58;15.70;61.40
26164;DHT22;13914;48.178;11.716;2022-07-12T03:05:24;15.70;60.40
26164;DHT22;13914;48.178;11.716;2022-07-12T03:07:50;15.70;60.60
26164;DHT22;13914;48.178;11.716;2022-07-12T03:10:15;15.60;60.60
26164;DHT22;13914;48.178;11.716;2022-07-12T03:12:42;15.60;60.70
26164;DHT22;13914;48.178;11.716;2022-07-12T03:15:07;15.60;60.70
26164;DHT22;13914;48.178;11.716;2022-07-12T03:17:33;15.50;60.70
26164;DHT22;13914;48.178;11.716;2022-07-12T03:19:59;15.50;60.70
26164;DHT22;13914;48.178;11.716;2022-07-12T03:22:25;15.50;60.90
26164;DHT22;13914;48.178;11.716;2022-07-12T03:24:51;15.40;60.80
26164;DHT22;13914;48.178;11.716;2022-07-12T03:27:17;15.40;60.70
26164;DHT22;13914;48.178;11.716;2022-07-12T03:29:43;15.40;60.90
26164;DHT22;13914;48.178;11.716;2022-07-12T03:32:09;15.40;60.90
26164;DHT22;13914;48.178;11.716;2022-07-12T03:34:35;15.30;61.00
26164;DHT22;13914;48.178;11.716;2022-07-12T03:37:02;15.30;61.10
26164;DHT22;13914;48.178;11.716;2022-07-12T03:39:28;15.30;61.00
26164;DHT22;13914;48.178;11.716;2022-07-12T03:41:54;15.30;61.20
26164;DHT22;13914;48.178;11.716;2022-07-12T03:44:20;15.20;61.10
26164;DHT22;13914;48.178;11.716;2022-07-12T03:46:45;15.20;61.30
26164;DHT22;13914;48.178;11.716;2022-07-12T03:49:12;15.20;61.30
26164;DHT22;13914;48.178;11.716;2022-07-12T03:51:38;15.10;61.30
26164;DHT22;13914;48.178;11.716;2022-07-12T03:54:05;15.10;61.20
26164;DHT22;13914;48.178;11.716;2022-07-12T03:56:33;15.10;61.20
26164;DHT22;13914;48.178;11.716;2022-07-12T03:59:18;15.10;61.30
26164;DHT22;13914;48.178;11.716;2022-07-12T04:01:44;15.10;61.40
26164;DHT22;13914;48.178;11.716;2022-07-12T04:04:10;15.10;61.10
26164;DHT22;13914;48.178;11.716;2022-07-12T04:06:36;15.00;61.30
26164;DHT22;13914;48.178;11.716;2022-07-12T04:09:02;15.00;62.20
26164;DHT22;13914;48.178;11.716;2022-07-12T04:11:28;15.00;61.40
26164;DHT22;13914;48.178;11.716;2022-07-12T04:13:54;15.00;61.50
26164;DHT22;13914;48.178;11.716;2022-07-12T04:16:19;15.00;61.40
26164;DHT22;13914;48.178;11.716;2022-07-12T04:18:45;14.90;61.30
26164;DHT22;13914;48.178;11.716;2022-07-12T04:21:10;14.90;61.30
26164;DHT22;13914;48.178;11.716;2022-07-12T04:23:37;14.90;61.20
26164;DHT22;13914;48.178;11.716;2022-07-12T04:26:03;14.90;62.10
26164;DHT22;13914;48.178;11.716;2022-07-12T04:28:29;14.90;61.70
26164;DHT22;13914;48.178;11.716;2022-07-12T04:30:54;14.90;63.00
26164;DHT22;13914;48.178;11.716;2022-07-12T04:33:20;14.90;62.70
26164;DHT22;13914;48.178;11.716;2022-07-12T04:35:46;14.90;62.60
26164;DHT22;13914;48.178;11.716;2022-07-12T04:38:14;14.80;62.60
26164;DHT22;13914;48.178;11.716;2022-07-12T04:40:46;14.80;62.60
26164;DHT22;13914;48.178;11.716;2022-07-12T04:43:11;14.80;62.90
26164;DHT22;13914;48.178;11.716;2022-07-12T04:45:37;14.90;63.00
26164;DHT22;13914;48.178;11.716;2022-07-12T04:48:03;14.80;64.00
26164;DHT22;13914;48.178;11.716;2022-07-12T04:50:29;14.80;62.60
26164;DHT22;13914;48.178;11.716;2022-07-12T04:52:54;14.80;62.10
26164;DHT22;13914;48.178;11.716;2022-07-12T04:55:20;14.80;64.00
26164;DHT22;13914;48.178;11.716;2022-07-12T04:57:46;14.80;64.40
26164;DHT22;13914;48.178;11.716;2022-07-12T05:00:12;14.80;65.50
26164;DHT22;13914;48.178;11.716;2022-07-12T05:02:38;14.80;63.40
26164;DHT22;13914;48.178;11.716;2022-07-12T05:05:04;14.80;63.90
26164;DHT22;13914;48.178;11.716;2022-07-12T05:07:30;14.90;64.10
26164;DHT22;13914;48.178;11.716;2022-07-12T05:09:56;14.90;64.90
26164;DHT22;13914;48.178;11.716;2022-07-12T05:12:22;14.90;65.70
26164;DHT22;13914;48.178;11.716;2022-07-12T05:14:48;14.90;67.60
26164;DHT22;13914;48.178;11.716;2022-07-12T05:17:13;14.90;66.20
26164;DHT22;13914;48.178;11.716;2022-07-12T05:19:39;14.90;65.80
26164;DHT22;13914;48.178;11.716;2022-07-12T05:22:05;15.00;66.60
26164;DHT22;13914;48.178;11.716;2022-07-12T05:24:30;15.00;66.70
26164;DHT22;13914;48.178;11.716;2022-07-12T05:26:56;15.00;65.60
26164;DHT22;13914;48.178;11.716;2022-07-12T05:29:22;15.10;66.50
26164;DHT22;13914;48.178;11.716;2022-07-12T05:31:48;15.10;65.90
26164;DHT22;13914;48.178;11.716;2022-07-12T05:34:13;15.10;66.00
26164;DHT22;13914;48.178;11.716;2022-07-12T05:36:39;15.20;66.30
26164;DHT22;13914;48.178;11.716;2022-07-12T05:39:05;15.20;66.40
26164;DHT22;13914;48.178;11.716;2022-07-12T05:41:31;15.20;66.70
26164;DHT22;13914;48.178;11.716;2022-07-12T05:43:57;15.30;66.50
26164;DHT22;13914;48.178;11.716;2022-07-12T05:46:22;15.30;66.30
26164;DHT22;13914;48.178;11.716;2022-07-12T05:48:48;15.30;67.30
26164;DHT22;13914;48.178;11.716;2022-07-12T05:51:14;15.30;66.90
26164;DHT22;13914;48.178;11.716;2022-07-12T05:53:58;15.40;66.90
26164;DHT22;13914;48.178;11.716;2022-07-12T05:56:24;15.50;67.60
26164;DHT22;13914;48.178;11.716;2022-07-12T05:58:50;15.50;67.50
26164;DHT22;13914;48.178;11.716;2022-07-12T06:01:16;15.50;67.00
26164;DHT22;13914;48.178;11.716;2022-07-12T06:03:42;15.60;67.20
26164;DHT22;13914;48.178;11.716;2022-07-12T06:06:08;15.60;66.90
26164;DHT22;13914;48.178;11.716;2022-07-12T06:08:34;15.70;66.60
26164;DHT22;13914;48.178;11.716;2022-07-12T06:10:59;15.70;67.30
26164;DHT22;13914;48.178;11.716;2022-07-12T06:13:25;15.80;66.60
26164;DHT22;13914;48.178;11.716;2022-07-12T06:15:51;15.80;66.60
26164;DHT22;13914;48.178;11.716;2022-07-12T06:18:17;15.80;67.20
26164;DHT22;13914;48.178;11.716;2022-07-12T06:20:42;15.90;67.70
26164;DHT22;13914;48.178;11.716;2022-07-12T06:23:08;15.90;68.00
26164;DHT22;13914;48.178;11.716;2022-07-12T06:25:34;16.00;67.50
26164;DHT22;13914;48.178;11.716;2022-07-12T06:28:00;16.10;68.30
26164;DHT22;13914;48.178;11.716;2022-07-12T06:30:27;16.10;67.70
26164;DHT22;13914;48.178;11.716;2022-07-12T06:32:52;16.20;68.70
26164;DHT22;13914;48.178;11.716;2022-07-12T06:35:18;16.20;70.20
26164;DHT22;13914;48.178;11.716;2022-07-12T06:37:44;16.30;69.70
26164;DHT22;13914;48.178;11.716;2022-07-12T06:40:10;16.40;69.80
26164;DHT22;13914;48.178;11.716;2022-07-12T06:42:37;16.40;70.20
26164;DHT22;13914;48.178;11.716;2022-07-12T06:45:03;16.60;69.10
26164;DHT22;13914;48.178;11.716;2022-07-12T06:47:29;16.60;68.70
26164;DHT22;13914;48.178;11.716;2022-07-12T06:49:55;16.70;67.80
26164;DHT22;13914;48.178;11.716;2022-07-12T06:52:20;16.90;67.90
26164;DHT22;13914;48.178;11.716;2022-07-12T06:54:46;17.00;67.80
26164;DHT22;13914;48.178;11.716;2022-07-12T06:57:12;17.20;67.20
26164;DHT22;13914;48.178;11.716;2022-07-12T06:59:38;17.30;65.60
26164;DHT22;13914;48.178;11.716;2022-07-12T07:02:04;17.50;67.00
26164;DHT22;13914;48.178;11.716;2022-07-12T07:04:29;17.70;67.20
26164;DHT22;13914;48.178;11.716;2022-07-12T07:06:55;17.80;66.10
26164;DHT22;13914;48.178;11.716;2022-07-12T07:09:21;17.90;65.70
26164;DHT22;13914;48.178;11.716;2022-07-12T07:11:47;18.10;65.70
26164;DHT22;13914;48.178;11.716;2022-07-12T07:14:13;18.30;65.60
26164;DHT22;13914;48.178;11.716;2022-07-12T07:16:38;18.50;65.30
26164;DHT22;13914;48.178;11.716;2022-07-12T07:19:04;18.60;65.20
26164;DHT22;13914;48.178;11.716;2022-07-12T07:21:31;18.80;65.00
26164;DHT22;13914;48.178;11.716;2022-07-12T07:23:57;19.00;64.40
26164;DHT22;13914;48.178;11.716;2022-07-12T07:26:23;19.20;64.20
26164;DHT22;13914;48.178;11.716;2022-07-12T07:28:49;19.40;63.90
26164;DHT22;13914;48.178;11.716;2022-07-12T07:31:53;19.70;63.90
26164;DHT22;13914;48.178;11.716;2022-07-12T07:34:19;20.00;63.60
26164;DHT22;13914;48.178;11.716;2022-07-12T07:36:45;20.20;63.30
26164;DHT22;13914;48.178;11.716;2022-07-12T07:39:10;20.40;62.60
26164;DHT22;13914;48.178;11.716;2022-07-12T07:41:37;20.70;61.20
26164;DHT22;13914;48.178;11.716;2022-07-12T07:44:03;20.90;61.90
26164;DHT22;13914;48.178;11.716;2022-07-12T07:46:29;21.10;61.10
26164;DHT22;13914;48.178;11.716;2022-07-12T07:48:54;21.30;60.90
26164;DHT22;13914;48.178;11.716;2022-07-12T07:51:20;21.50;60.80
26164;DHT22;13914;48.178;11.716;2022-07-12T07:53:46;21.70;59.70
26164;DHT22;13914;48.178;11.716;2022-07-12T07:56:11;21.80;59.20
26164;DHT22;13914;48.178;11.716;2022-07-12T07:58:37;21.90;58.80
26164;DHT22;13914;48.178;11.716;2022-07-12T08:01:03;22.10;58.90
26164;DHT22;13914;48.178;11.716;2022-07-12T08:03:29;22.30;58.80
26164;DHT22;13914;48.178;11.716;2022-07-12T08:05:54;22.30;58.00
26164;DHT22;13914;48.178;11.716;2022-07-12T08:08:23;22.50;57.50
26164;DHT22;13914;48.178;11.716;2022-07-12T08:10:50;22.60;58.00
26164;DHT22;13914;48.178;11.716;2022-07-12T08:13:16;22.70;57.20
26164;DHT22;13914;48.178;11.716;2022-07-12T08:15:42;22.80;57.50
26164;DHT22;13914;48.178;11.716;2022-07-12T08:18:08;22.90;56.70
26164;DHT22;13914;48.178;11.716;2022-07-12T08:20:33;23.00;56.20
26164;DHT22;13914;48.178;11.716;2022-07-12T08:22:59;23.00;55.60
26164;DHT22;13914;48.178;11.716;2022-07-12T08:25:25;23.20;56.40
26164;DHT22;13914;48.178;11.716;2022-07-12T08:27:51;23.30;55.80
26164;DHT22;13914;48.178;11.716;2022-07-12T08:30:16;23.40;55.20
26164;DHT22;13914;48.178;11.716;2022-07-12T08:32:43;23.40;54.30
26164;DHT22;13914;48.178;11.716;2022-07-12T08:35:09;23.50;53.90
26164;DHT22;13914;48.178;11.716;2022-07-12T08:37:35;23.60;53.60
26164;DHT22;13914;48.178;11.716;2022-07-12T08:40:01;23.60;54.30
26164;DHT22;13914;48.178;11.716;2022-07-12T08:42:26;23.70;54.60
26164;DHT22;13914;48.178;11.716;2022-07-12T08:44:56;23.70;52.90
26164;DHT22;13914;48.178;11.716;2022-07-12T08:47:22;23.80;54.60
26164;DHT22;13914;48.178;11.716;2022-07-12T08:52:38;24.00;52.50
26164;DHT22;13914;48.178;11.716;2022-07-12T08:57:46;24.10;52.10
26164;DHT22;13914;48.178;11.716;2022-07-12T09:00:12;24.10;52.40
26164;DHT22;13914;48.178;11.716;2022-07-12T09:02:42;24.30;53.40
26164;DHT22;13914;48.178;11.716;2022-07-12T09:05:12;24.40;53.00
26164;DHT22;13914;48.178;11.716;2022-07-12T09:07:39;24.50;51.40
26164;DHT22;13914;48.178;11.716;2022-07-12T09:10:05;24.60;52.50
26164;DHT22;13914;48.178;11.716;2022-07-12T09:12:33;24.80;53.50
26164;DHT22;13914;48.178;11.716;2022-07-12T09:18:04;25.00;51.90
26164;DHT22;13914;48.178;11.716;2022-07-12T09:22:56;24.90;49.80
26164;DHT22;13914;48.178;11.716;2022-07-12T09:25:23;24.90;49.80
26164;DHT22;13914;48.178;11.716;2022-07-12T09:28:00;24.80;51.00
26164;DHT22;13914;48.178;11.716;2022-07-12T09:30:28;24.80;50.90
26164;DHT22;13914;48.178;11.716;2022-07-12T09:35:43;24.70;50.50
26164;DHT22;13914;48.178;11.716;2022-07-12T09:38:35;24.70;50.80
26164;DHT22;13914;48.178;11.716;2022-07-12T09:41:01;24.80;50.40
26164;DHT22;13914;48.178;11.716;2022-07-12T09:43:27;24.70;48.60
26164;DHT22;13914;48.178;11.716;2022-07-12T09:45:53;24.70;49.30
26164;DHT22;13914;48.178;11.716;2022-07-12T09:48:19;24.70;50.20
26164;DHT22;13914;48.178;11.716;2022-07-12T09:50:49;24.70;48.80
26164;DHT22;13914;48.178;11.716;2022-07-12T09:53:19;24.70;49.10
26164;DHT22;13914;48.178;11.716;2022-07-12T09:55:50;24.60;49.00
26164;DHT22;13914;48.178;11.716;2022-07-12T09:58:25;24.70;49.70
26164;DHT22;13914;48.178;11.716;2022-07-12T10:00:52;24.70;50.00
26164;DHT22;13914;48.178;11.716;2022-07-12T10:03:20;24.70;49.50
26164;DHT22;13914;48.178;11.716;2022-07-12T10:05:47;24.70;49.60
26164;DHT22;13914;48.178;11.716;2022-07-12T10:08:18;24.80;50.30
26164;DHT22;13914;48.178;11.716;2022-07-12T10:10:45;24.90;49.80
26164;DHT22;13914;48.178;11.716;2022-07-12T10:13:12;25.00;48.90
26164;DHT22;13914;48.178;11.716;2022-07-12T10:15:38;24.90;49.40
26164;DHT22;13914;48.178;11.716;2022-07-12T10:18:04;25.10;50.40
26164;DHT22;13914;48.178;11.716;2022-07-12T10:20:30;25.20;50.90
26164;DHT22;13914;48.178;11.716;2022-07-12T10:31:34;25.40;47.30
26164;DHT22;13914;48.178;11.716;2022-07-12T10:34:11;25.40;46.50
26164;DHT22;13914;48.178;11.716;2022-07-12T10:37:06;25.50;47.80
26164;DHT22;13914;48.178;11.716;2022-07-12T10:39:32;25.60;48.50
26164;DHT22;13914;48.178;11.716;2022-07-12T10:44:40;25.90;47.90
26164;DHT22;13914;48.178;11.716;2022-07-12T10:47:10;25.90;47.30
26164;DHT22;13914;48.178;11.716;2022-07-12T10:49:50;25.90;46.90
26164;DHT22;13914;48.178;11.716;2022-07-12T10:52:26;25.90;46.30
26164;DHT22;13914;48.178;11.716;2022-07-12T11:00:06;26.40;46.30
26164;DHT22;13914;48.178;11.716;2022-07-12T11:02:34;26.50;46.70
26164;DHT22;13914;48.178;11.716;2022-07-12T11:05:00;26.80;46.70
26164;DHT22;13914;48.178;11.716;2022-07-12T11:07:26;26.90;47.00
26164;DHT22;13914;48.178;11.716;2022-07-12T11:09:53;27.10;46.60
26164;DHT22;13914;48.178;11.716;2022-07-12T11:12:19;27.30;47.00
26164;DHT22;13914;48.178;11.716;2022-07-12T11:14:45;27.40;45.20
26164;DHT22;13914;48.178;11.716;2022-07-12T11:17:11;27.50;45.60
26164;DHT22;13914;48.178;11.716;2022-07-12T11:19:37;27.70;45.80
26164;DHT22;13914;48.178;11.716;2022-07-12T11:22:03;27.90;46.90
26164;DHT22;13914;48.178;11.716;2022-07-12T11:24:33;28.00;45.70
26164;DHT22;13914;48.178;11.716;2022-07-12T11:27:02;28.00;41.70
26164;DHT22;13914;48.178;11.716;2022-07-12T11:29:28;27.90;41.90
26164;DHT22;13914;48.178;11.716;2022-07-12T11:32:01;28.00;42.00
26164;DHT22;13914;48.178;11.716;2022-07-12T11:34:31;28.00;41.40
26164;DHT22;13914;48.178;11.716;2022-07-12T11:36:57;28.20;43.10
26164;DHT22;13914;48.178;11.716;2022-07-12T11:39:30;28.30;40.50
26164;DHT22;13914;48.178;11.716;2022-07-12T11:42:03;28.30;41.60
26164;DHT22;13914;48.178;11.716;2022-07-12T11:47:08;28.20;40.30
26164;DHT22;13914;48.178;11.716;2022-07-12T11:49:34;28.20;39.90
26164;DHT22;13914;48.178;11.716;2022-07-12T11:52:00;28.10;39.50
26164;DHT22;13914;48.178;11.716;2022-07-12T11:54:26;28.20;40.90
26164;DHT22;13914;48.178;11.716;2022-07-12T11:57:07;28.30;41.60
26164;DHT22;13914;48.178;11.716;2022-07-12T11:59:34;28.40;40.40
26164;DHT22;13914;48.178;11.716;2022-07-12T12:02:18;28.40;39.40
26164;DHT22;13914;48.178;11.716;2022-07-12T12:04:45;28.20;38.90
26164;DHT22;13914;48.178;11.716;2022-07-12T12:07:15;28.30;40.00
26164;DHT22;13914;48.178;11.716;2022-07-12T12:09:57;28.40;41.60
26164;DHT22;13914;48.178;11.716;2022-07-12T12:13:02;28.50;42.70
26164;DHT22;13914;48.178;11.716;2022-07-12T12:15:25;28.70;43.20
26164;DHT22;13914;48.178;11.716;2022-07-12T12:20:26;28.90;41.90
26164;DHT22;13914;48.178;11.716;2022-07-12T12:22:53;28.90;41.80
26164;DHT22;13914;48.178;11.716;2022-07-12T12:25:19;28.60;38.70
26164;DHT22;13914;48.178;11.716;2022-07-12T12:27:47;28.50;40.30
26164;DHT22;13914;48.178;11.716;2022-07-12T12:30:14;28.50;39.90
26164;DHT22;13914;48.178;11.716;2022-07-12T12:35:16;28.60;42.40
26164;DHT22;13914;48.178;11.716;2022-07-12T12:37:50;28.80;43.20
26164;DHT22;13914;48.178;11.716;2022-07-12T12:40:20;28.90;42.70
26164;DHT22;13914;48.178;11.716;2022-07-12T12:42:47;28.80;41.60
26164;DHT22;13914;48.178;11.716;2022-07-12T12:45:17;28.70;39.80
26164;DHT22;13914;48.178;11.716;2022-07-12T12:50:52;28.80;43.30
26164;DHT22;13914;48.178;11.716;2022-07-12T12:53:22;28.80;42.30
26164;DHT22;13914;48.178;11.716;2022-07-12T12:55:53;28.90;41.00
26164;DHT22;13914;48.178;11.716;2022-07-12T12:58:20;28.90;42.60
26164;DHT22;13914;48.178;11.716;2022-07-12T13:00:48;28.90;38.70
26164;DHT22;13914;48.178;11.716;2022-07-12T13:03:16;28.80;39.30
26164;DHT22;13914;48.178;11.716;2022-07-12T13:05:43;28.90;40.50
26164;DHT22;13914;48.178;11.716;2022-07-12T13:08:10;28.90;38.40
26164;DHT22;13914;48.178;11.716;2022-07-12T13:10:37;28.90;39.80
26164;DHT22;13914;48.178;11.716;2022-07-12T13:13:03;28.90;42.90
26164;DHT22;13914;48.178;11.716;2022-07-12T13:15:30;29.00;38.00
26164;DHT22;13914;48.178;11.716;2022-07-12T13:17:56;29.00;41.10
26164;DHT22;13914;48.178;11.716;2022-07-12T13:20:22;29.00;39.50
26164;DHT22;13914;48.178;11.716;2022-07-12T13:22:49;28.90;36.30
26164;DHT22;13914;48.178;11.716;2022-07-12T13:25:15;28.70;36.00
26164;DHT22;13914;48.178;11.716;2022-07-12T13:27:41;28.70;37.10
26164;DHT22;13914;48.178;11.716;2022-07-12T13:30:09;28.70;36.80
26164;DHT22;13914;48.178;11.716;2022-07-12T13:32:36;28.70;37.60
26164;DHT22;13914;48.178;11.716;2022-07-12T13:35:03;28.60;37.40
26164;DHT22;13914;48.178;11.716;2022-07-12T13:37:30;28.60;41.30
26164;DHT22;13914;48.178;11.716;2022-07-12T13:39:55;28.70;41.70
26164;DHT22;13914;48.178;11.716;2022-07-12T13:42:46;28.70;40.90
26164;DHT22;13914;48.178;11.716;2022-07-12T13:45:15;28.60;40.60
26164;DHT22;13914;48.178;11.716;2022-07-12T13:47:41;28.60;42.80
26164;DHT22;13914;48.178;11.716;2022-07-12T13:50:08;28.60;38.80
26164;DHT22;13914;48.178;11.716;2022-07-12T13:52:35;28.50;37.50
26164;DHT22;13914;48.178;11.716;2022-07-12T13:55:01;28.40;37.20
26164;DHT22;13914;48.178;11.716;2022-07-12T13:57:27;28.30;41.10
26164;DHT22;13914;48.178;11.716;2022-07-12T13:59:53;28.30;39.60
26164;DHT22;13914;48.178;11.716;2022-07-12T14:02:19;28.30;41.20
26164;DHT22;13914;48.178;11.716;2022-07-12T14:04:44;28.20;38.40
26164;DHT22;13914;48.178;11.716;2022-07-12T14:07:10;28.10;39.30
26164;DHT22;13914;48.178;11.716;2022-07-12T14:09:37;28.00;38.00
26164;DHT22;13914;48.178;11.716;2022-07-12T14:12:02;28.00;39.80
26164;DHT22;13914;48.178;11.716;2022-07-12T14:14:29;28.00;41.80
26164;DHT22;13914;48.178;11.716;2022-07-12T14:17:13;28.00;40.30
26164;DHT22;13914;48.178;11.716;2022-07-12T14:19:39;27.90;37.90
26164;DHT22;13914;48.178;11.716;2022-07-12T14:22:05;27.70;37.90
26164;DHT22;13914;48.178;11.716;2022-07-12T14:24:31;27.70;39.10
26164;DHT22;13914;48.178;11.716;2022-07-12T14:26:56;27.60;41.60
26164;DHT22;13914;48.178;11.716;2022-07-12T14:29:22;27.70;40.90
26164;DHT22;13914;48.178;11.716;2022-07-12T14:31:48;27.60;38.60
26164;DHT22;13914;48.178;11.716;2022-07-12T14:34:15;27.50;38.00
26164;DHT22;13914;48.178;11.716;2022-07-12T14:36:41;27.30;38.10
26164;DHT22;13914;48.178;11.716;2022-07-12T14:39:07;27.30;38.80
26164;DHT22;13914;48.178;11.716;2022-07-12T14:41:32;27.20;38.40
26164;DHT22;13914;48.178;11.716;2022-07-12T14:43:58;27.20;40.90
26164;DHT22;13914;48.178;11.716;2022-07-12T14:46:24;27.20;38.70
26164;DHT22;13914;48.178;11.716;2022-07-12T14:48:49;27.10;37.00
26164;DHT22;13914;48.178;11.716;2022-07-12T14:51:15;27.00;38.10
26164;DHT22;13914;48.178;11.716;2022-07-12T14:53:41;27.00;38.70
26164;DHT22;13914;48.178;11.716;2022-07-12T14:56:06;26.80;38.00
26164;DHT22;13914;48.178;11.716;2022-07-12T14:58:32;26.70;38.90
26164;DHT22;13914;48.178;11.716;2022-07-12T15:00:58;26.70;39.80
26164;DHT22;13914;48.178;11.716;2022-07-12T15:03:24;26.60;39.10
26164;DHT22;13914;48.178;11.716;2022-07-12T15:05:50;26.50;38.80
26164;DHT22;13914;48.178;11.716;2022-07-12T15:08:15;26.50;39.20
26164;DHT22;13914;48.178;11.716;2022-07-12T15:10:41;26.40;38.30
26164;DHT22;13914;48.178;11.716;2022-07-12T15:13:07;26.20;39.10
26164;DHT22;13914;48.178;11.716;2022-07-12T15:15:33;26.20;39.40
26164;DHT22;13914;48.178;11.716;2022-07-12T15:17:59;26.10;39.00
26164;DHT22;13914;48.178;11.716;2022-07-12T15:20:24;26.10;39.80
26164;DHT22;13914;48.178;11.716;2022-07-12T15:22:50;26.00;40.00
26164;DHT22;13914;48.178;11.716;2022-07-12T15:25:16;25.80;39.30
26164;DHT22;13914;48.178;11.716;2022-07-12T15:27:42;25.80;38.90
26164;DHT22;13914;48.178;11.716;2022-07-12T15:30:08;25.60;37.70
26164;DHT22;13914;48.178;11.716;2022-07-12T15:32:34;25.50;38.50
26164;DHT22;13914;48.178;11.716;2022-07-12T15:34:59;25.40;39.20
26164;DHT22;13914;48.178;11.716;2022-07-12T15:37:25;25.40;39.20
26164;DHT22;13914;48.178;11.716;2022-07-12T15:39:51;25.50;39.20
26164;DHT22;13914;48.178;11.716;2022-07-12T15:42:17;25.50;39.70
26164;DHT22;13914;48.178;11.716;2022-07-12T15:44:43;25.50;40.00
26164;DHT22;13914;48.178;11.716;2022-07-12T15:47:09;25.50;40.20
26164;DHT22;13914;48.178;11.716;2022-07-12T15:49:39;25.50;40.80
26164;DHT22;13914;48.178;11.716;2022-07-12T15:52:06;25.40;40.10
26164;DHT22;13914;48.178;11.716;2022-07-12T15:55:04;25.40;40.10
26164;DHT22;13914;48.178;11.716;2022-07-12T15:57:35;25.40;39.60